Time;durP1;ratioP1;P1;durP2;ratioP2;P2;SDS_P1;SDS_P2;PMS_P1;PMS_P2;Temp;Humidity;BMP_temperature;BMP_pressure;BME280_temperature;BME280_humidity;BME280_pressure;Samples;Min_cycle;Max_cycle;Signal;HPM_P1;HPM_P2
2021/11/19 00:02:14;;;;;;;46.60;25.42;;;;;;;8.48;55.59;96696.13;4992183;28;20117;-65
2021/11/19 00:04:40;;;;;;;47.47;24.25;;;;;;;8.42;55.66;96684.66;4995618;28;20089;-64
2021/11/19 00:07:06;;;;;;;64.88;27.45;;;;;;;8.46;55.89;96682.31;4991160;28;20022;-65
2021/11/19 00:09:32;;;;;;;52.80;25.90;;;;;;;8.37;55.38;96674.00;4991611;28;20715;-64
2021/11/19 00:11:57;;;;;;;65.45;28.17;;;;;;;8.45;55.57;96686.03;4991916;28;20026;-65
2021/11/19 00:14:24;;;;;;;70.57;28.48;;;;;;;8.37;55.56;96675.88;4991437;28;20053;-66
2021/11/19 00:17:05;;;;;;;74.47;30.13;;;;;;;8.44;55.21;96685.19;4991600;28;20034;-65
2021/11/19 00:19:36;;;;;;;62.78;27.92;;;;;;;8.42;55.46;96683.88;4990863;28;20089;-63
2021/11/19 00:22:02;;;;;;;85.18;30.95;;;;;;;8.38;55.43;96674.81;4995432;28;20022;-64
2021/11/19 00:24:27;;;;;;;64.13;28.05;;;;;;;8.42;55.34;96686.53;4990917;28;20080;-65
2021/11/19 00:26:54;;;;;;;65.05;28.02;;;;;;;8.43;55.79;96688.13;4991500;28;20117;-64
2021/11/19 00:29:19;;;;;;;82.95;30.50;;;;;;;8.42;55.55;96689.97;4990974;28;20065;-65
2021/11/19 00:31:46;;;;;;;79.88;32.10;;;;;;;8.44;55.49;96701.13;4991342;28;20022;-64
2021/11/19 00:34:11;;;;;;;60.67;28.60;;;;;;;8.44;55.11;96695.00;4995236;28;20053;-64
2021/11/19 00:36:37;;;;;;;66.18;29.60;;;;;;;8.44;55.63;96700.31;4994505;28;20057;-64
2021/11/19 00:39:10;;;;;;;77.78;30.80;;;;;;;8.40;55.58;96689.44;4989709;28;20499;-64
2021/11/19 00:41:37;;;;;;;89.07;33.08;;;;;;;8.45;55.58;96691.34;4990203;28;20644;-63
2021/11/19 00:44:04;;;;;;;73.03;29.23;;;;;;;8.44;55.62;96708.28;4990029;28;20042;-64
2021/11/19 00:46:30;;;;;;;88.68;32.72;;;;;;;8.45;55.82;96713.34;4991071;28;20030;-64
2021/11/19 00:48:56;;;;;;;95.72;34.03;;;;;;;8.35;55.59;96702.63;4993981;28;20475;-65
2021/11/19 00:51:35;;;;;;;97.30;34.65;;;;;;;8.45;55.39;96715.19;4991520;28;20165;-65
2021/11/19 00:54:01;;;;;;;73.00;31.35;;;;;;;8.47;55.49;96705.13;4989682;28;20077;-64
2021/11/19 00:56:32;;;;;;;75.90;31.05;;;;;;;8.47;55.55;96699.81;4991064;28;20033;-64
2021/11/19 00:58:59;;;;;;;80.13;32.05;;;;;;;8.45;55.57;96697.44;4989305;28;20034;-64
2021/11/19 01:01:32;;;;;;;65.07;29.40;;;;;;;8.50;55.84;96694.03;4990780;28;20029;-66
2021/11/19 01:03:58;;;;;;;87.35;34.67;;;;;;;8.52;55.53;96697.22;4993835;28;20018;-64
2021/11/19 01:06:23;;;;;;;88.63;32.25;;;;;;;8.54;55.67;96692.44;4998381;28;20038;-64
2021/11/19 01:08:49;;;;;;;90.30;33.13;;;;;;;8.48;55.75;96680.22;4996047;28;20033;-64
2021/11/19 01:11:18;;;;;;;100.47;35.75;;;;;;;8.58;55.72;96691.69;4990401;28;20094;-65
2021/11/19 01:13:46;;;;;;;141.82;40.97;;;;;;;8.45;55.71;96670.13;4990454;28;20045;-65
2021/11/19 01:16:28;;;;;;;103.22;35.10;;;;;;;8.57;55.24;96691.97;4990553;28;20034;-64
2021/11/19 01:19:03;;;;;;;76.25;31.17;;;;;;;8.49;55.27;96679.16;4990983;28;20022;-64
2021/11/19 01:21:37;;;;;;;84.38;31.85;;;;;;;8.55;55.59;96692.22;4993875;28;20030;-63
2021/11/19 01:24:03;;;;;;;74.47;31.60;;;;;;;8.55;55.60;96688.78;4990243;28;20018;-63
2021/11/19 01:26:35;;;;;;;85.78;33.03;;;;;;;8.54;55.81;96687.94;4990230;28;20031;-64
2021/11/19 01:29:06;;;;;;;99.43;34.80;;;;;;;8.55;55.55;96686.91;4990028;28;20678;-64
2021/11/19 01:31:36;;;;;;;72.32;31.83;;;;;;;8.57;55.54;96694.59;4990442;28;20027;-64
2021/11/19 01:34:03;;;;;;;82.43;31.92;;;;;;;8.55;55.67;96684.25;4993945;28;20029;-65
2021/11/19 01:36:29;;;;;;;59.67;29.58;;;;;;;8.45;55.57;96678.88;4993718;28;20558;-64
2021/11/19 01:38:54;;;;;;;105.85;36.13;;;;;;;8.49;55.16;96684.44;4988761;28;20049;-64
2021/11/19 01:41:26;;;;;;;72.85;30.52;;;;;;;8.39;55.63;96677.19;4990185;28;20022;-64
2021/11/19 01:43:55;;;;;;;67.35;30.52;;;;;;;8.47;55.91;96684.72;4989728;28;20033;-64
2021/11/19 01:46:24;;;;;;;91.32;33.97;;;;;;;8.45;55.68;96683.38;4989091;28;20082;-64
2021/11/19 01:48:51;;;;;;;81.75;33.72;;;;;;;8.43;55.91;96688.13;4991058;28;20027;-64
2021/11/19 01:51:47;;;;;;;68.45;30.05;;;;;;;8.46;55.97;96687.63;4991284;28;20372;-65
2021/11/19 01:54:24;;;;;;;65.00;29.08;;;;;;;8.44;56.06;96690.50;4989772;28;20499;-64
2021/11/19 01:57:09;;;;;;;88.13;33.33;;;;;;;8.46;56.01;96687.63;4988954;28;20042;-65
2021/11/19 01:59:37;;;;;;;93.85;34.17;;;;;;;8.45;56.17;96689.47;4989636;28;20034;-64
2021/11/19 02:02:09;;;;;;;73.90;31.90;;;;;;;8.25;56.49;96691.91;4990246;28;20034;-65
2021/11/19 02:04:43;;;;;;;57.50;28.83;;;;;;;8.35;56.19;96689.34;4992486;28;20038;-63
2021/11/19 02:07:32;;;;;;;64.07;28.67;;;;;;;8.37;56.47;96678.53;4994440;28;20045;-64
2021/11/19 02:10:19;;;;;;;73.07;31.40;;;;;;;8.26;56.61;96683.69;4988243;28;20392;-64
2021/11/19 02:13:15;;;;;;;81.93;32.53;;;;;;;8.16;56.77;96675.66;4989977;28;20499;-64
2021/11/19 02:15:46;;;;;;;65.25;30.02;;;;;;;8.32;56.63;96669.44;4989928;28;20049;-64
2021/11/19 02:18:34;;;;;;;67.27;29.97;;;;;;;8.36;56.01;96668.94;4989593;28;20471;-65
2021/11/19 02:21:08;;;;;;;106.40;37.30;;;;;;;8.31;55.63;96665.19;4989835;28;20443;-64
2021/11/19 02:23:45;;;;;;;91.70;33.40;;;;;;;7.51;55.42;96560.03;4980810;28;20084;-64
2021/11/19 02:26:14;;;;;;;68.93;29.30;;;;;;;8.32;56.14;96682.69;4989941;28;20034;-64
2021/11/19 02:28:42;;;;;;;63.15;29.88;;;;;;;8.29;55.90;96699.13;4988611;28;20034;-64
2021/11/19 02:31:14;;;;;;;71.55;31.40;;;;;;;7.89;56.45;96709.28;4992906;28;20380;-65
2021/11/19 02:33:41;;;;;;;154.23;34.88;;;;;;;7.78;57.81;96711.81;4991948;28;20028;-64
2021/11/19 02:36:13;;;;;;;173.02;35.25;;;;;;;7.37;59.06;96707.03;4997926;28;20097;-64
2021/11/19 02:38:44;;;;;;;158.13;33.88;;;;;;;7.48;59.01;96703.50;4993637;28;20042;-64
2021/11/19 02:41:11;;;;;;;145.25;33.10;;;;;;;7.46;59.73;96701.09;4993255;28;20389;-64
2021/11/19 02:43:49;;;;;;;115.53;31.35;;;;;;;7.16;60.40;96687.44;4993364;28;20060;-64
2021/11/19 02:46:21;;;;;;;136.27;29.70;;;;;;;6.41;62.78;96691.34;4993424;28;20062;-63
2021/11/19 02:48:47;;;;;;;95.75;28.08;;;;;;;6.35;62.70;96679.09;4991778;28;20018;-63
2021/11/19 02:51:15;;;;;;;89.03;29.25;;;;;;;6.88;61.96;96698.97;4997483;28;20092;-63
2021/11/19 02:53:42;;;;;;;97.72;30.98;;;;;;;7.23;60.58;96685.44;4992943;28;20046;-64
2021/11/19 02:56:08;;;;;;;65.75;27.60;;;;;;;7.38;60.32;96690.94;4993189;28;20058;-64
2021/11/19 02:58:39;;;;;;;129.82;33.38;;;;;;;7.74;59.52;96700.13;4992197;28;20121;-64
2021/11/19 03:01:14;;;;;;;52.72;26.67;;;;;;;7.89;58.68;96691.53;4992995;28;20057;-64
2021/11/19 03:03:45;;;;;;;169.07;41.78;;;;;;;8.05;58.08;96695.94;4992644;28;20019;-64
2021/11/19 03:06:11;;;;;;;51.38;25.27;;;;;;;8.11;57.92;96688.84;4996208;28;20061;-64
2021/11/19 03:08:36;;;;;;;84.95;32.17;;;;;;;8.22;57.46;96693.19;4991743;28;20088;-64
2021/11/19 03:11:02;;;;;;;61.03;27.00;;;;;;;8.25;57.61;96703.31;4992727;28;20033;-64
2021/11/19 03:13:31;;;;;;;85.40;31.27;;;;;;;7.91;57.12;96699.25;4991466;28;20027;-64
2021/11/19 03:15:57;;;;;;;72.63;28.67;;;;;;;8.10;57.51;96712.97;4992741;28;20498;-64
2021/11/19 03:18:24;;;;;;;103.75;29.90;;;;;;;8.05;57.10;96698.59;4992585;28;20113;-64
2021/11/19 03:20:54;;;;;;;175.00;33.25;;;;;;;7.90;57.82;96710.88;5002961;28;20100;-64
2021/11/19 03:23:21;;;;;;;244.68;32.88;;;;;;;7.21;58.54;96700.75;4993626;28;20038;-63
2021/11/19 03:25:47;;;;;;;200.98;31.85;;;;;;;6.90;59.37;96707.44;4991497;28;20085;-63
2021/11/19 03:28:16;;;;;;;168.80;29.83;;;;;;;6.88;61.01;96720.91;4992391;28;20444;-62
2021/11/19 03:30:45;;;;;;;176.98;34.47;;;;;;;7.52;58.68;96713.38;4991118;28;20038;-63
2021/11/19 03:33:13;;;;;;;568.40;51.40;;;;;;;7.84;58.21;96712.69;4992335;28;20113;-62
2021/11/19 03:35:39;;;;;;;156.73;33.40;;;;;;;7.90;57.35;96705.59;4995268;28;20050;-63
2021/11/19 03:38:05;;;;;;;114.32;35.72;;;;;;;8.03;57.21;96715.78;4992167;28;20022;-64
2021/11/19 03:40:35;;;;;;;118.82;38.33;;;;;;;8.04;56.91;96712.91;4991726;28;20615;-63
2021/11/19 03:43:04;;;;;;;119.05;38.05;;;;;;;8.12;56.77;96721.44;4991537;28;20731;-64
2021/11/19 03:45:35;;;;;;;71.85;29.75;;;;;;;8.14;56.55;96717.53;4992128;28;20038;-63
2021/11/19 03:48:02;;;;;;;44.50;25.35;;;;;;;8.19;56.46;96725.53;4992232;28;20030;-63
2021/11/19 03:50:41;;;;;;;50.55;27.58;;;;;;;8.24;56.05;96716.78;4995949;28;20109;-63
2021/11/19 03:53:08;;;;;;;50.22;25.02;;;;;;;8.26;56.01;96701.47;4988684;28;20544;-64
2021/11/19 03:55:36;;;;;;;59.53;26.67;;;;;;;8.25;55.66;96705.16;4992067;28;20540;-64
2021/11/19 03:58:04;;;;;;;42.17;23.05;;;;;;;8.08;55.59;96684.84;4990726;28;20033;-63
2021/11/19 04:00:37;;;;;;;49.58;23.77;;;;;;;8.20;55.60;96697.97;4990818;28;20033;-63
2021/11/19 04:03:04;;;;;;;58.72;26.67;;;;;;;8.19;55.53;96709.63;4990862;28;20542;-63
2021/11/19 04:05:31;;;;;;;43.60;23.58;;;;;;;8.16;55.37;96710.09;4995796;28;20060;-63
2021/11/19 04:07:56;;;;;;;47.92;24.27;;;;;;;7.99;55.16;96688.22;4992035;28;20014;-65
2021/11/19 04:10:22;;;;;;;66.43;27.08;;;;;;;8.08;54.90;96702.59;4991192;28;20492;-65
2021/11/19 04:12:47;;;;;;;42.13;23.38;;;;;;;7.97;55.16;96691.09;4991676;28;20037;-64
2021/11/19 04:15:22;;;;;;;37.85;22.90;;;;;;;7.97;55.25;96682.34;4991732;28;20070;-63
2021/11/19 04:17:48;;;;;;;37.63;21.67;;;;;;;7.90;55.41;96663.19;4991784;28;20027;-64
2021/11/19 04:20:17;;;;;;;41.58;22.45;;;;;;;8.02;55.51;96685.84;4995211;28;20496;-65
2021/11/19 04:22:42;;;;;;;45.67;24.20;;;;;;;7.98;55.76;96676.78;4991264;28;20050;-62
2021/11/19 04:25:11;;;;;;;33.25;21.35;;;;;;;8.06;55.39;96681.66;4991280;28;20054;-64
2021/11/19 04:27:37;;;;;;;33.95;20.70;;;;;;;8.06;55.89;96692.25;4991682;28;20033;-64
2021/11/19 04:30:07;;;;;;;38.83;21.30;;;;;;;8.06;55.34;96683.50;4989901;28;20022;-64
2021/11/19 04:32:33;;;;;;;52.13;24.90;;;;;;;8.05;55.64;96682.72;4991351;28;20030;-63
2021/11/19 04:34:59;;;;;;;44.22;23.48;;;;;;;8.07;55.65;96685.91;4994420;28;20029;-63
2021/11/19 04:37:26;;;;;;;45.60;23.73;;;;;;;7.97;55.38;96677.84;4996525;28;20026;-64
2021/11/19 04:39:51;;;;;;;37.50;20.67;;;;;;;7.94;55.25;96681.00;4990845;28;20030;-64
2021/11/19 04:42:17;;;;;;;51.13;23.90;;;;;;;8.01;55.41;96689.53;4991180;28;20026;-64
2021/11/19 04:44:44;;;;;;;53.45;24.58;;;;;;;8.04;54.91;96702.31;4990775;28;20112;-64
2021/11/19 04:47:10;;;;;;;32.88;20.45;;;;;;;7.94;54.70;96674.91;4991094;28;20018;-63
2021/11/19 04:49:35;;;;;;;42.00;23.10;;;;;;;7.97;55.20;96669.88;4989773;28;20030;-64
2021/11/19 04:52:03;;;;;;;41.80;22.88;;;;;;;8.01;55.07;96680.78;4997433;28;20034;-65
2021/11/19 04:54:28;;;;;;;42.00;21.67;;;;;;;7.95;55.17;96672.00;4990789;28;20026;-64
2021/11/19 04:56:55;;;;;;;35.88;21.60;;;;;;;7.97;55.33;96685.00;4990879;28;20076;-63
2021/11/19 04:59:22;;;;;;;41.38;22.60;;;;;;;7.97;55.31;96683.13;4989490;28;20515;-64
2021/11/19 05:01:51;;;;;;;48.83;23.70;;;;;;;8.02;55.59;96687.69;4991075;28;20045;-63
2021/11/19 05:04:18;;;;;;;59.72;26.52;;;;;;;7.97;55.46;96671.75;4989100;28;20027;-64
2021/11/19 05:06:43;;;;;;;49.35;25.20;;;;;;;8.02;55.63;96677.88;4995111;28;20076;-64
2021/11/19 05:09:09;;;;;;;47.47;22.33;;;;;;;7.93;55.72;96670.63;4989171;28;20032;-67
2021/11/19 05:11:47;;;;;;;48.40;24.65;;;;;;;8.07;55.55;96695.69;4990958;28;20065;-63
2021/11/19 05:14:14;;;;;;;58.28;26.55;;;;;;;7.99;55.89;96678.41;4989119;28;20037;-64
2021/11/19 05:16:39;;;;;;;50.10;25.45;;;;;;;8.10;55.60;96681.97;4990639;28;20026;-65
2021/11/19 05:19:05;;;;;;;68.10;28.40;;;;;;;8.12;55.60;96684.34;4988551;28;20025;-65
2021/11/19 05:21:31;;;;;;;48.22;24.30;;;;;;;8.13;55.28;96683.28;4995154;28;20031;-64
2021/11/19 05:23:56;;;;;;;42.50;23.15;;;;;;;8.10;55.52;96676.66;4994613;28;20018;-65
2021/11/19 05:26:22;;;;;;;51.75;25.60;;;;;;;8.09;55.47;96675.06;4990428;28;20034;-65
2021/11/19 05:28:48;;;;;;;56.25;27.73;;;;;;;8.00;56.10;96665.94;4990358;28;20515;-65
2021/11/19 05:31:16;;;;;;;56.28;26.40;;;;;;;8.13;55.82;96667.38;4990030;28;20105;-66
2021/11/19 05:33:42;;;;;;;71.78;30.17;;;;;;;8.19;56.59;96671.69;4990218;28;20646;-65
2021/11/19 05:36:09;;;;;;;63.88;28.85;;;;;;;8.22;56.31;96665.91;4994517;28;20065;-65
2021/11/19 05:38:37;;;;;;;58.28;27.70;;;;;;;8.23;56.23;96668.28;4990126;28;20018;-66
2021/11/19 05:41:08;;;;;;;57.15;28.75;;;;;;;8.36;56.24;96682.19;4990149;28;20476;-67
2021/11/19 05:43:35;;;;;;;69.85;29.42;;;;;;;8.39;56.11;96671.09;4988977;28;20100;-66
2021/11/19 05:46:02;;;;;;;56.95;26.90;;;;;;;8.31;56.07;96662.53;4990370;28;20034;-66
2021/11/19 05:48:27;;;;;;;59.03;27.95;;;;;;;8.34;56.12;96664.69;4990394;28;20109;-66
2021/11/19 05:50:53;;;;;;;61.40;27.70;;;;;;;8.41;56.10;96663.72;4993672;28;20066;-66
2021/11/19 05:53:20;;;;;;;55.63;26.40;;;;;;;8.17;55.49;96629.53;4988404;28;20023;-66
2021/11/19 05:55:47;;;;;;;50.95;25.60;;;;;;;8.37;55.58;96657.31;4990394;28;20027;-65
2021/11/19 05:58:15;;;;;;;47.08;24.52;;;;;;;8.34;55.56;96663.88;4990213;28;20031;-65
2021/11/19 06:00:54;;;;;;;63.92;26.80;;;;;;;8.28;55.46;96660.38;4989831;28;20026;-65
2021/11/19 06:03:20;;;;;;;56.95;26.20;;;;;;;8.22;55.54;96650.00;4989617;28;20057;-65
2021/11/19 06:05:46;;;;;;;51.13;25.50;;;;;;;8.22;56.04;96657.94;4992904;28;20431;-66
2021/11/19 06:08:11;;;;;;;60.85;26.30;;;;;;;8.20;56.10;96657.41;4996253;28;20050;-66
2021/11/19 06:10:49;;;;;;;54.45;26.50;;;;;;;8.30;55.85;96668.91;4993657;28;20030;-65
2021/11/19 06:13:15;;;;;;;68.97;28.60;;;;;;;8.32;55.97;96672.09;4992521;28;20037;-65
2021/11/19 06:15:45;;;;;;;51.38;24.80;;;;;;;8.27;56.10;96658.00;4993864;28;20023;-66
2021/11/19 06:18:26;;;;;;;50.38;25.52;;;;;;;8.33;56.13;96671.03;4993978;28;20026;-65
2021/11/19 06:20:56;;;;;;;71.68;27.40;;;;;;;8.44;55.60;96687.06;4996002;28;20026;-65
2021/11/19 06:23:26;;;;;;;59.58;25.67;;;;;;;8.45;55.45;96689.47;4994309;28;20416;-65
2021/11/19 06:25:53;;;;;;;52.08;25.13;;;;;;;8.38;55.53;96682.75;4993589;28;20109;-65
2021/11/19 06:28:26;;;;;;;56.10;25.38;;;;;;;8.47;55.88;96692.66;4992590;28;20121;-65
2021/11/19 06:30:52;;;;;;;50.47;24.10;;;;;;;8.49;55.96;96687.09;4993025;28;20540;-64
2021/11/19 06:33:19;;;;;;;49.70;23.88;;;;;;;8.39;55.86;96665.81;4993427;28;20026;-66
2021/11/19 06:35:46;;;;;;;58.42;25.65;;;;;;;8.55;55.64;96692.22;4993109;28;20069;-64
2021/11/19 06:38:13;;;;;;;51.55;24.40;;;;;;;8.53;56.10;96689.00;4992259;28;20019;-64
2021/11/19 06:40:39;;;;;;;48.60;24.58;;;;;;;8.32;56.67;96679.25;4992145;28;20050;-65
2021/11/19 06:43:05;;;;;;;43.92;23.52;;;;;;;8.52;56.37;96687.41;4993432;28;20645;-64
2021/11/19 06:45:31;;;;;;;48.00;25.20;;;;;;;8.66;56.33;96697.59;4993017;28;20077;-64
2021/11/19 06:47:58;;;;;;;42.28;23.33;;;;;;;8.73;56.28;96690.22;4993172;28;20102;-70
2021/11/19 06:50:26;;;;;;;64.38;28.77;;;;;;;8.90;56.39;96719.25;4992277;28;20031;-65
2021/11/19 06:52:52;;;;;;;48.13;23.92;;;;;;;8.91;55.59;96713.72;4997266;28;20488;-67
2021/11/19 06:55:17;;;;;;;63.60;28.10;;;;;;;9.05;55.78;96714.88;4992714;28;20080;-66
2021/11/19 06:57:43;;;;;;;54.15;25.33;;;;;;;9.13;55.21;96705.63;4993057;28;20679;-65
2021/11/19 07:00:13;;;;;;;40.35;22.80;;;;;;;9.34;54.86;96728.59;4992769;28;20034;-66
2021/11/19 07:02:38;;;;;;;43.50;23.95;;;;;;;9.40;55.17;96726.75;4993002;28;20057;-66
2021/11/19 07:05:04;;;;;;;47.72;23.67;;;;;;;9.46;55.04;96724.94;4992417;28;20057;-65
2021/11/19 07:07:29;;;;;;;51.55;24.65;;;;;;;9.49;54.66;96722.56;4993942;28;20053;-70
2021/11/19 07:09:55;;;;;;;40.20;21.40;;;;;;;9.57;54.18;96730.06;4992458;28;20018;-70
2021/11/19 07:12:20;;;;;;;58.67;27.33;;;;;;;9.73;54.44;96744.22;4993359;28;20468;-67
2021/11/19 07:14:46;;;;;;;58.05;25.60;;;;;;;9.77;54.00;96745.28;4992759;28;20459;-67
2021/11/19 07:17:12;;;;;;;54.83;26.45;;;;;;;9.75;54.06;96735.97;4988692;28;20117;-68
2021/11/19 07:19:39;;;;;;;32.40;20.42;;;;;;;9.76;53.54;96740.22;4990555;28;20037;-68
2021/11/19 07:22:05;;;;;;;40.00;22.70;;;;;;;9.74;53.78;96739.69;4997190;28;20031;-67
2021/11/19 07:24:33;;;;;;;34.50;21.30;;;;;;;9.78;53.88;96744.25;4992383;28;20065;-67
2021/11/19 07:26:59;;;;;;;53.75;25.58;;;;;;;9.84;54.10;96745.84;4991603;28;20473;-68
2021/11/19 07:29:24;;;;;;;46.17;22.80;;;;;;;9.93;53.75;96764.78;4992135;28;20037;-68
2021/11/19 07:31:50;;;;;;;53.63;25.30;;;;;;;9.99;53.75;96749.66;4992467;28;20060;-67
2021/11/19 07:34:15;;;;;;;40.30;23.27;;;;;;;9.97;54.10;96738.44;4991081;28;20491;-67
2021/11/19 07:36:41;;;;;;;47.97;24.63;;;;;;;10.06;53.51;96732.38;4996160;28;20038;-67
2021/11/19 07:39:08;;;;;;;35.25;19.98;;;;;;;10.22;53.64;96740.41;4990433;28;20480;-68
2021/11/19 07:41:34;;;;;;;24.27;18.35;;;;;;;10.43;53.88;96747.38;4992525;28;20027;-68
2021/11/19 07:44:00;;;;;;;21.40;17.08;;;;;;;10.68;53.09;96735.97;4990548;28;20041;-68
2021/11/19 07:46:27;;;;;;;21.98;16.35;;;;;;;10.96;52.80;96740.00;4992277;28;20027;-67
2021/11/19 07:48:54;;;;;;;16.30;14.60;;;;;;;11.19;51.93;96749.28;4992339;28;20030;-69
2021/11/19 07:51:28;;;;;;;17.05;14.70;;;;;;;11.47;51.07;96747.13;4996348;28;20021;-66
2021/11/19 07:53:54;;;;;;;15.43;13.82;;;;;;;11.69;50.38;96747.59;4991840;28;20408;-69
2021/11/19 07:56:27;;;;;;;17.30;14.00;;;;;;;11.84;50.27;96736.13;4992430;28;20034;-69
2021/11/19 07:58:53;;;;;;;21.23;16.30;;;;;;;11.96;49.82;96734.72;4992222;28;20223;-68
2021/11/19 08:01:18;;;;;;;17.52;14.00;;;;;;;12.11;49.99;96738.41;4992229;28;20026;-68
2021/11/19 08:03:44;;;;;;;15.85;12.02;;;;;;;12.12;49.73;96732.00;4992208;28;20136;-68
2021/11/19 08:06:10;;;;;;;19.20;13.75;;;;;;;12.17;49.47;96731.97;4995916;28;20034;-67
2021/11/19 08:08:37;;;;;;;12.32;11.13;;;;;;;12.33;49.10;96730.81;4996793;28;20023;-67
2021/11/19 08:11:06;;;;;;;13.15;11.93;;;;;;;12.42;48.96;96734.50;4991572;28;20030;-67
2021/11/19 08:13:32;;;;;;;13.48;12.15;;;;;;;12.54;48.89;96736.84;4991951;28;20029;-67
2021/11/19 08:15:58;;;;;;;12.52;11.30;;;;;;;12.68;48.74;96737.78;4991880;28;20396;-67
2021/11/19 08:18:27;;;;;;;12.60;11.40;;;;;;;12.70;48.27;96724.19;4992250;28;20038;-67
2021/11/19 08:20:55;;;;;;;10.95;9.95;;;;;;;12.89;48.24;96733.09;4994130;28;20328;-68
2021/11/19 08:23:42;;;;;;;11.57;10.57;;;;;;;13.12;47.84;96736.91;4997186;28;20026;-67
2021/11/19 08:26:30;;;;;;;13.60;12.27;;;;;;;13.17;47.41;96738.75;4991463;28;20034;-68
2021/11/19 08:28:57;;;;;;;10.20;9.20;;;;;;;13.39;47.70;96751.66;4991153;28;20634;-68
2021/11/19 08:31:25;;;;;;;10.88;9.88;;;;;;;13.47;47.10;96749.19;4991805;28;20030;-68
2021/11/19 08:33:50;;;;;;;11.57;9.93;;;;;;;13.67;47.01;96747.41;4991375;28;20026;-68
2021/11/19 08:36:17;;;;;;;10.32;9.43;;;;;;;13.81;46.74;96740.25;4990985;28;20029;-68
2021/11/19 08:38:44;;;;;;;9.55;8.75;;;;;;;13.88;46.44;96748.75;4995803;28;20054;-68
2021/11/19 08:41:11;;;;;;;8.75;8.05;;;;;;;13.72;46.30;96739.31;4990735;28;20538;-69
2021/11/19 08:43:39;;;;;;;9.15;7.97;;;;;;;13.62;46.28;96744.78;4991127;28;20050;-67
2021/11/19 08:46:09;;;;;;;8.55;7.85;;;;;;;13.58;46.42;96741.06;4991281;28;20038;-67
2021/11/19 08:48:35;;;;;;;9.88;8.55;;;;;;;13.57;46.36;96748.28;4991275;28;20049;-67
2021/11/19 08:51:02;;;;;;;9.80;8.90;;;;;;;13.48;46.92;96747.31;4989061;28;20021;-68
2021/11/19 08:53:28;;;;;;;13.65;11.00;;;;;;;13.46;47.15;96730.75;4995321;28;20026;-67
2021/11/19 08:55:57;;;;;;;9.40;8.50;;;;;;;13.59;47.15;96746.13;4990985;28;20160;-66
2021/11/19 08:58:27;;;;;;;11.95;8.93;;;;;;;13.63;47.28;96747.16;4991022;28;20034;-64
2021/11/19 09:00:55;;;;;;;12.27;11.07;;;;;;;13.76;47.27;96745.66;4990733;28;20031;-66
2021/11/19 09:03:20;;;;;;;9.10;8.13;;;;;;;13.72;46.91;96734.75;4990390;28;20117;-65
2021/11/19 09:05:49;;;;;;;10.65;9.57;;;;;;;13.93;47.24;96747.91;4992314;28;20631;-66
2021/11/19 09:08:16;;;;;;;8.93;8.13;;;;;;;13.98;46.65;96739.81;4997093;28;20018;-66
2021/11/19 09:10:44;;;;;;;11.55;8.13;;;;;;;14.08;46.62;96736.22;4990336;28;20105;-67
2021/11/19 09:13:10;;;;;;;9.15;7.13;;;;;;;14.18;46.60;96744.91;4990384;28;20018;-66
2021/11/19 09:15:36;;;;;;;7.00;6.40;;;;;;;14.09;46.43;96735.91;4990538;28;20037;-66
2021/11/19 09:18:25;;;;;;;6.50;5.80;;;;;;;14.19;46.63;96743.03;4990619;28;20029;-66
2021/11/19 09:20:58;;;;;;;7.88;7.15;;;;;;;14.31;47.08;96746.06;4991453;28;20022;-61
2021/11/19 09:23:29;;;;;;;8.00;7.30;;;;;;;14.22;46.78;96737.88;4994331;28;20028;-61
2021/11/19 09:25:59;;;;;;;7.82;7.07;;;;;;;14.26;46.64;96741.56;4990408;28;20080;-60
2021/11/19 09:28:27;;;;;;;8.88;6.35;;;;;;;14.48;46.62;96735.69;4989370;28;20400;-60
2021/11/19 09:30:57;;;;;;;6.80;6.20;;;;;;;14.75;45.97;96737.72;4990221;28;20110;-60
2021/11/19 09:33:24;;;;;;;6.03;5.43;;;;;;;14.55;45.51;96738.00;4990358;28;20057;-67
2021/11/19 09:35:51;;;;;;;7.03;5.50;;;;;;;14.37;45.58;96718.13;4992433;28;20025;-64
2021/11/19 09:38:19;;;;;;;5.70;5.10;;;;;;;14.68;45.48;96717.72;4995214;28;20022;-77
2021/11/19 09:40:53;;;;;;;5.82;5.22;;;;;;;14.03;46.09;96735.19;4989175;28;20065;-65
2021/11/19 09:43:54;;;;;;;6.68;5.10;;;;;;;14.11;45.96;96741.78;4988303;28;20116;-72
2021/11/19 09:46:44;;;;;;;5.57;5.07;;;;;;;13.57;45.91;96748.28;4987420;28;20050;-67
2021/11/19 09:49:24;;;;;;;5.22;4.72;;;;;;;12.32;50.25;96729.22;4990160;28;20473;-64
2021/11/19 09:51:55;;;;;;;9.05;5.57;;;;;;;13.44;48.00;96735.59;4989446;28;20093;-64
2021/11/19 09:54:41;;;;;;;6.97;5.93;;;;;;;13.63;47.08;96735.66;4989662;28;20035;-64
2021/11/19 09:57:39;;;;;;;8.13;6.07;;;;;;;13.18;48.59;96735.78;4990077;28;20049;-64
2021/11/19 10:00:04;;;;;;;7.53;6.88;;;;;;;11.59;52.36;96732.44;4989739;28;20042;-62
2021/11/19 10:02:42;;;;;;;10.77;8.93;;;;;;;12.23;50.79;96733.53;4990063;28;20042;-63
2021/11/19 10:05:29;;;;;;;10.38;9.32;;;;;;;12.00;51.40;96726.97;4989756;28;20034;-62
2021/11/19 10:08:14;;;;;;;13.07;10.82;;;;;;;11.86;52.14;96732.09;4994137;28;20037;-63
2021/11/19 10:10:47;;;;;;;11.85;10.75;;;;;;;11.03;53.94;96731.72;4982672;28;20029;-63
2021/11/19 10:13:21;;;;;;;12.95;11.82;;;;;;;12.37;50.80;96731.06;4989503;28;20030;-62
2021/11/19 10:16:02;;;;;;;13.52;12.32;;;;;;;11.89;51.98;96736.09;4989776;28;20110;-63
2021/11/19 10:18:37;;;;;;;13.63;12.32;;;;;;;10.99;53.67;96736.00;4989756;28;20058;-63
2021/11/19 10:21:10;;;;;;;15.38;13.85;;;;;;;11.10;54.05;96730.38;4988892;28;20061;-62
2021/11/19 10:23:47;;;;;;;14.70;13.25;;;;;;;11.57;52.83;96728.47;4991370;28;20031;-62
2021/11/19 10:26:20;;;;;;;13.45;12.05;;;;;;;10.73;54.13;96720.03;4989649;28;20061;-69
2021/11/19 10:28:54;;;;;;;13.43;12.23;;;;;;;12.07;51.49;96732.00;4989762;28;20026;-63
2021/11/19 10:31:23;;;;;;;14.35;12.85;;;;;;;11.52;52.47;96723.16;4989693;28;20023;-61
2021/11/19 10:34:05;;;;;;;14.60;13.23;;;;;;;10.72;54.32;96726.41;4989091;28;20026;-63
2021/11/19 10:36:33;;;;;;;14.82;13.25;;;;;;;11.45;52.56;96716.22;4987758;28;20460;-65
2021/11/19 10:39:16;;;;;;;13.90;12.63;;;;;;;10.51;55.00;96711.50;4993305;28;20495;-69
2021/11/19 10:42:03;;;;;;;13.98;12.68;;;;;;;10.93;54.63;96720.03;4983135;28;20026;-64
2021/11/19 10:44:31;;;;;;;12.82;11.68;;;;;;;11.59;53.50;96715.66;4988218;28;20621;-65
2021/11/19 10:46:57;;;;;;;15.65;12.82;;;;;;;11.80;52.28;96705.72;4988562;28;20042;-63
2021/11/19 10:49:38;;;;;;;15.77;12.70;;;;;;;12.61;50.54;96697.28;4989343;28;20023;-63
2021/11/19 10:52:23;;;;;;;13.73;12.43;;;;;;;11.82;51.27;96687.59;4996820;28;20053;-64
2021/11/19 10:55:03;;;;;;;15.68;13.65;;;;;;;12.42;50.26;96699.00;4991791;28;20026;-63
2021/11/19 10:57:34;;;;;;;13.73;12.50;;;;;;;13.02;48.73;96704.97;4991963;28;20027;-63
2021/11/19 11:00:48;;;;;;;14.25;12.95;;;;;;;12.35;50.49;96703.88;4992611;28;20026;-63
2021/11/19 11:03:21;;;;;;;14.43;13.00;;;;;;;12.60;50.39;96698.34;4991412;28;20038;-61
2021/11/19 11:06:15;;;;;;;14.10;12.65;;;;;;;12.22;51.15;96695.38;4988532;28;20056;-63
2021/11/19 11:08:44;;;;;;;12.50;11.40;;;;;;;12.72;49.85;96698.00;4995272;28;20042;-62
2021/11/19 11:11:20;;;;;;;14.98;11.73;;;;;;;13.47;48.33;96694.94;4992402;28;20022;-63
2021/11/19 11:13:58;;;;;;;11.60;10.50;;;;;;;12.89;48.66;96706.38;4991405;28;20058;-65
2021/11/19 11:16:28;;;;;;;12.82;11.35;;;;;;;12.34;50.00;96703.06;4992719;28;20408;-63
2021/11/19 11:19:00;;;;;;;12.95;11.50;;;;;;;12.35;50.84;96704.66;4991353;28;20041;-62
2021/11/19 11:21:39;;;;;;;12.48;11.20;;;;;;;11.36;52.91;96696.53;4990810;28;20058;-63
2021/11/19 11:24:18;;;;;;;12.45;11.15;;;;;;;11.51;53.16;96686.88;5000014;28;20433;-63
2021/11/19 11:26:47;;;;;;;11.82;10.63;;;;;;;11.09;53.97;96683.53;4986289;28;20395;-62
2021/11/19 11:29:18;;;;;;;12.02;10.88;;;;;;;11.25;53.19;96664.84;4991813;28;20027;-63
2021/11/19 11:32:14;;;;;;;12.88;10.50;;;;;;;11.33;52.25;96664.31;4990964;28;20126;-64
2021/11/19 11:34:42;;;;;;;11.10;9.95;;;;;;;11.85;51.75;96661.19;4991091;28;20088;-65
2021/11/19 11:37:33;;;;;;;10.52;9.63;;;;;;;12.82;49.70;96668.53;4995265;28;20060;-65
2021/11/19 11:40:08;;;;;;;11.38;10.38;;;;;;;13.49;47.43;96648.09;4992228;28;20037;-67